Time;durP1;ratioP1;P1;durP2;ratioP2;P2;SDS_P1;SDS_P2;PMS_P1;PMS_P2;Temp;Humidity;BMP_temperature;BMP_pressure;BME280_temperature;BME280_humidity;BME280_pressure;Samples;Min_cycle;Max_cycle;Signal;HPM_P1;HPM_P2
2021/11/12 00:02:44;;;;;;;24.38;18.73;;;;;;;;;;5030452;28;20029;-61
2021/11/12 00:14:46;;;;;;;28.95;21.88;;;;;;;;;;5029779;28;20032;-64
2021/11/12 00:17:33;;;;;;;28.20;21.98;;;;;;;;;;5035536;28;20498;-64
2021/11/12 00:20:18;;;;;;;25.15;19.92;;;;;;;;;;5033731;28;20040;-64
2021/11/12 00:23:03;;;;;;;24.40;19.25;;;;;;;;;;5034853;28;20032;-63
2021/11/12 00:25:50;;;;;;;26.27;21.10;;;;;;;;;;5036520;28;20037;-66
2021/11/12 00:28:49;;;;;;;23.15;18.98;;;;;;;;;;5036437;28;20032;-64
2021/11/12 00:37:18;;;;;;;24.05;18.27;;;;;;;;;;5037328;28;20037;-65
2021/11/12 00:40:18;;;;;;;27.48;19.77;;;;;;;;;;5037165;28;20041;-64
2021/11/12 00:43:10;;;;;;;27.17;21.20;;;;;;;;;;5025474;28;20043;-64
2021/11/12 00:48:55;;;;;;;31.70;24.13;;;;;;;;;;5032076;28;20033;-65
2021/11/12 00:54:26;;;;;;;25.08;18.38;;;;;;;;;;5031073;28;20607;-69
2021/11/12 00:57:12;;;;;;;24.00;18.92;;;;;;;;;;5036531;28;20037;-69
2021/11/12 00:59:58;;;;;;;27.35;20.67;;;;;;;;;;5036541;28;20032;-69
2021/11/12 01:02:43;;;;;;;24.25;18.60;;;;;;;;;;5036454;28;20040;-68
2021/11/12 01:05:30;;;;;;;22.67;17.92;;;;;;;;;;5033944;28;20037;-68
2021/11/12 01:08:16;;;;;;;23.00;17.83;;;;;;;;;;5033246;28;20398;-69
2021/11/12 01:11:02;;;;;;;25.17;19.58;;;;;;;;;;5038478;28;20064;-65
2021/11/12 01:13:49;;;;;;;25.52;19.45;;;;;;;;;;5032813;28;20417;-63
2021/11/12 01:16:34;;;;;;;22.58;17.33;;;;;;;;;;5047112;28;20102;-65
2021/11/12 01:19:19;;;;;;;25.50;19.83;;;;;;;;;;5035240;28;20087;-64
2021/11/12 01:22:05;;;;;;;23.25;18.00;;;;;;;;;;5028887;28;20048;-64
2021/11/12 01:24:50;;;;;;;24.67;17.85;;;;;;;;;;5019192;28;20025;-65
2021/11/12 01:27:36;;;;;;;23.30;18.33;;;;;;;;;;5035229;28;20053;-65
2021/11/12 01:30:21;;;;;;;21.88;17.08;;;;;;;;;;5034257;28;20061;-65
2021/11/12 01:33:06;;;;;;;30.35;20.13;;;;;;;;;;5030326;28;20036;-69
2021/11/12 01:35:54;;;;;;;23.10;16.83;;;;;;;;;;5015037;28;20031;-64
2021/11/12 01:38:39;;;;;;;25.10;20.20;;;;;;;;;;5033130;28;20025;-65
2021/11/12 01:41:25;;;;;;;29.02;22.98;;;;;;;;;;5030293;28;20037;-64
2021/11/12 01:44:12;;;;;;;25.00;19.65;;;;;;;;;;5034077;28;20028;-65
2021/11/12 01:49:54;;;;;;;27.38;18.25;;;;;;;;;;5033437;28;20045;-64
2021/11/12 01:52:45;;;;;;;25.27;20.33;;;;;;;;;;5037812;28;20082;-66
2021/11/12 02:01:23;;;;;;;25.88;17.90;;;;;;;;;;5034371;28;20383;-64
2021/11/12 02:04:10;;;;;;;30.58;22.10;;;;;;;;;;5035648;28;20021;-61
2021/11/12 02:07:04;;;;;;;31.17;21.85;;;;;;;;;;5034645;28;20127;-68
2021/11/12 02:09:49;;;;;;;29.67;22.13;;;;;;;;;;5019477;28;20032;-67
2021/11/12 02:12:45;;;;;;;28.92;21.20;;;;;;;;;;5026996;28;20502;-67
2021/11/12 02:15:33;;;;;;;24.77;18.40;;;;;;;;;;5030290;28;20072;-66
2021/11/12 02:18:29;;;;;;;26.95;20.08;;;;;;;;;;5027863;28;20531;-67
2021/11/12 02:21:33;;;;;;;30.15;22.13;;;;;;;;;;5029707;28;20033;-66
2021/11/12 02:24:18;;;;;;;24.50;18.90;;;;;;;;;;5047941;28;20039;-61
2021/11/12 02:27:03;;;;;;;29.30;21.05;;;;;;;;;;5023582;28;20036;-61
2021/11/12 02:29:52;;;;;;;27.15;18.27;;;;;;;;;;5048917;28;20076;-62
2021/11/12 02:32:37;;;;;;;24.15;18.05;;;;;;;;;;5036951;28;20429;-65
2021/11/12 02:35:23;;;;;;;25.63;19.08;;;;;;;;;;5029951;28;20032;-63
2021/11/12 02:38:09;;;;;;;26.65;20.70;;;;;;;;;;5032811;28;20040;-62
2021/11/12 02:40:54;;;;;;;24.85;19.65;;;;;;;;;;5035090;28;20559;-61
2021/11/12 02:43:41;;;;;;;27.73;21.92;;;;;;;;;;5033284;28;20079;-68
2021/11/12 02:46:27;;;;;;;26.42;20.33;;;;;;;;;;5034045;28;20037;-63
2021/11/12 02:49:12;;;;;;;30.35;22.20;;;;;;;;;;5034351;28;20037;-64
2021/11/12 02:51:57;;;;;;;27.98;21.23;;;;;;;;;;5033138;28;20032;-64
2021/11/12 02:54:43;;;;;;;30.65;21.15;;;;;;;;;;5031612;28;20198;-63
2021/11/12 02:57:33;;;;;;;27.15;21.02;;;;;;;;;;5029361;28;20033;-65
2021/11/12 03:00:21;;;;;;;30.70;21.50;;;;;;;;;;5034655;28;20064;-64
2021/11/12 03:03:06;;;;;;;26.90;18.63;;;;;;;;;;5030502;28;20045;-66
2021/11/12 03:05:52;;;;;;;26.55;19.25;;;;;;;;;;5029974;28;20384;-66
2021/11/12 03:08:37;;;;;;;33.58;23.33;;;;;;;;;;5031589;28;20076;-65
2021/11/12 03:11:22;;;;;;;28.65;21.40;;;;;;;;;;5019439;28;20033;-66
2021/11/12 03:14:09;;;;;;;29.23;20.70;;;;;;;;;;5031278;28;20048;-65
2021/11/12 03:16:54;;;;;;;28.55;21.17;;;;;;;;;;5032709;28;20033;-66
2021/11/12 03:19:40;;;;;;;25.02;17.33;;;;;;;;;;5044564;28;20037;-64
2021/11/12 03:22:32;;;;;;;27.48;19.90;;;;;;;;;;5032090;28;20029;-65
2021/11/12 03:25:27;;;;;;;28.23;20.17;;;;;;;;;;5020118;28;20034;-64
2021/11/12 03:28:19;;;;;;;22.05;17.77;;;;;;;;;;5030353;28;20060;-67
2021/11/12 03:46:48;;;;;;;25.23;18.70;;;;;;;;;;5031288;28;20033;-64
2021/11/12 04:02:07;;;;;;;25.40;18.70;;;;;;;;;;5028092;28;20037;-67
2021/11/12 05:34:25;;;;;;;27.40;20.70;;;;;;;;;;5035320;28;20037;-63
2021/11/12 05:46:22;;;;;;;25.70;19.70;;;;;;;;;;5028254;28;20041;-62
2021/11/12 05:55:08;;;;;;;26.23;20.08;;;;;;;;;;5034651;28;20083;-66
2021/11/12 05:57:54;;;;;;;25.27;19.40;;;;;;;;;;5023993;28;20064;-66
2021/11/12 06:00:39;;;;;;;26.27;19.13;;;;;;;;;;5030984;28;20036;-66
2021/11/12 06:03:24;;;;;;;24.58;18.52;;;;;;;;;;5037065;28;20380;-64
2021/11/12 06:06:10;;;;;;;28.23;17.23;;;;;;;;;;5034137;28;20067;-68
2021/11/12 06:08:55;;;;;;;23.85;16.55;;;;;;;;;;5032979;28;20387;-65
2021/11/12 06:11:40;;;;;;;25.33;16.58;;;;;;;;;;5025267;28;20029;-64
2021/11/12 06:14:26;;;;;;;23.90;17.60;;;;;;;;;;5033882;28;20033;-64
2021/11/12 06:17:11;;;;;;;25.48;18.23;;;;;;;;;;5012850;28;20157;-66
2021/11/12 06:19:56;;;;;;;25.35;17.73;;;;;;;;;;5029701;28;20041;-66
2021/11/12 06:22:42;;;;;;;23.38;17.20;;;;;;;;;;5041677;28;20108;-62
2021/11/12 06:25:28;;;;;;;27.30;18.30;;;;;;;;;;5033498;28;20480;-65
2021/11/12 06:28:13;;;;;;;27.10;17.60;;;;;;;;;;5014790;28;20051;-64
2021/11/12 06:31:00;;;;;;;26.73;18.95;;;;;;;;;;5025817;28;20124;-62
2021/11/12 06:33:47;;;;;;;27.15;19.42;;;;;;;;;;5028769;28;20040;-63
2021/11/12 06:36:32;;;;;;;30.40;20.92;;;;;;;;;;5029792;28;20037;-64
2021/11/12 06:39:19;;;;;;;31.90;20.40;;;;;;;;;;5044003;28;20036;-62
2021/11/12 06:42:14;;;;;;;30.65;20.42;;;;;;;;;;5033479;28;20048;-67
2021/11/12 06:50:48;;;;;;;28.80;20.15;;;;;;;;;;5045203;28;20090;-61
2021/11/12 06:53:35;;;;;;;31.33;20.85;;;;;;;;;;5029285;28;20037;-60
2021/11/12 06:56:26;;;;;;;35.75;22.40;;;;;;;;;;5034235;28;20033;-62
2021/11/12 06:59:11;;;;;;;29.25;20.05;;;;;;;;;;5026083;28;20490;-63
2021/11/12 07:01:57;;;;;;;31.35;20.75;;;;;;;;;;5031184;28;20106;-64
2021/11/12 07:04:42;;;;;;;29.73;20.55;;;;;;;;;;5038528;28;20452;-63
2021/11/12 07:07:28;;;;;;;29.00;21.25;;;;;;;;;;5029191;28;20055;-63
2021/11/12 07:10:13;;;;;;;30.65;21.08;;;;;;;;;;5028360;28;20033;-64
2021/11/12 07:12:59;;;;;;;26.13;19.52;;;;;;;;;;5022782;28;20047;-64
2021/11/12 07:15:44;;;;;;;33.00;21.55;;;;;;;;;;5029964;28;20629;-63
2021/11/12 07:18:30;;;;;;;29.33;20.80;;;;;;;;;;5024801;28;20032;-68
2021/11/12 07:21:15;;;;;;;32.33;21.63;;;;;;;;;;5031169;28;20045;-69
2021/11/12 07:24:01;;;;;;;32.28;21.58;;;;;;;;;;5026587;28;20572;-70
2021/11/12 07:26:46;;;;;;;32.63;22.67;;;;;;;;;;5028060;28;20081;-68
2021/11/12 07:29:33;;;;;;;37.45;24.48;;;;;;;;;;5024704;28;20034;-67
2021/11/12 07:32:19;;;;;;;31.55;22.50;;;;;;;;;;5026619;28;20565;-70
2021/11/12 07:35:05;;;;;;;36.85;24.20;;;;;;;;;;5024903;28;20052;-68
2021/11/12 07:37:57;;;;;;;39.22;26.05;;;;;;;;;;5026438;28;20207;-66
2021/11/12 07:46:59;;;;;;;31.05;23.90;;;;;;;;;;5043896;28;20029;-65
2021/11/12 07:49:49;;;;;;;32.38;22.50;;;;;;;;;;5043159;28;20541;-64
2021/11/12 07:52:36;;;;;;;36.35;24.70;;;;;;;;;;5031817;28;20029;-66
2021/11/12 07:55:22;;;;;;;34.22;23.08;;;;;;;;;;5025456;28;20061;-65
2021/11/12 07:58:07;;;;;;;32.83;24.17;;;;;;;;;;5056254;23;20045;-63
2021/11/12 08:00:53;;;;;;;29.83;22.02;;;;;;;;;;5042393;28;20072;-63
2021/11/12 08:03:39;;;;;;;33.10;22.00;;;;;;;;;;5046372;28;20264;-63
2021/11/12 08:06:27;;;;;;;29.73;22.40;;;;;;;;;;5053203;28;20032;-63
2021/11/12 08:09:15;;;;;;;26.63;20.85;;;;;;;;;;5039443;28;20118;-64
2021/11/12 08:12:04;;;;;;;29.55;21.60;;;;;;;;;;5031847;28;20028;-65
2021/11/12 08:18:04;;;;;;;32.05;23.85;;;;;;;;;;5051683;28;20024;-66
2021/11/12 08:21:00;;;;;;;32.67;24.55;;;;;;;;;;5051340;28;20074;-67
2021/11/12 08:23:52;;;;;;;36.65;24.77;;;;;;;;;;5044237;28;20127;-67
2021/11/12 08:32:44;;;;;;;35.22;24.63;;;;;;;;;;5049513;28;20040;-64
2021/11/12 08:38:21;;;;;;;31.48;22.15;;;;;;;;;;5054879;28;20422;-63
2021/11/12 08:41:26;;;;;;;32.17;23.08;;;;;;;;;;5052471;28;20063;-66
2021/11/12 08:44:24;;;;;;;34.40;22.02;;;;;;;;;;5051355;28;20025;-63
2021/11/12 08:47:14;;;;;;;31.20;22.17;;;;;;;;;;5065575;28;20042;-66
2021/11/12 08:50:00;;;;;;;;;;;;;;;;;;5055651;28;20067;-63
2021/11/12 08:52:47;;;;;;;30.35;22.45;;;;;;;;;;5049562;28;19970;-69
2021/11/12 08:55:33;;;;;;;32.85;23.75;;;;;;;;;;5055437;28;20024;-68
2021/11/12 08:58:19;;;;;;;31.73;21.85;;;;;;;;;;5040681;28;20044;-67
2021/11/12 09:01:04;;;;;;;32.83;23.75;;;;;;;;;;5052364;28;20078;-69
2021/11/12 09:03:49;;;;;;;36.47;25.75;;;;;;;;;;5050731;28;20115;-67
2021/11/12 09:06:35;;;;;;;35.80;25.70;;;;;;;;;;5052891;28;20036;-62
2021/11/12 09:09:21;;;;;;;29.65;22.92;;;;;;;;;;5066716;28;20064;-66
2021/11/12 09:12:09;;;;;;;33.83;25.38;;;;;;;;;;5059610;28;20288;-62
2021/11/12 09:14:55;;;;;;;31.02;22.95;;;;;;;;;;5053288;28;20025;-61
2021/11/12 09:17:46;;;;;;;36.67;26.13;;;;;;;;;;5066999;28;20373;-65
2021/11/12 09:20:31;;;;;;;38.35;27.80;;;;;;;;;;5039891;28;20063;-62
2021/11/12 09:23:17;;;;;;;32.60;25.38;;;;;;;;;;5053075;28;20530;-64
2021/11/12 09:26:03;;;;;;;35.90;26.60;;;;;;;;;;5069446;28;20036;-64
2021/11/12 09:28:48;;;;;;;39.38;27.67;;;;;;;;;;5061782;28;20043;-66
2021/11/12 09:31:34;;;;;;;35.00;25.33;;;;;;;;;;5036415;28;20020;-68
2021/11/12 09:34:19;;;;;;;33.33;26.67;;;;;;;;;;5046046;28;20082;-67
2021/11/12 09:37:06;;;;;;;35.50;25.65;;;;;;;;;;5060654;28;20037;-67
2021/11/12 09:39:56;;;;;;;32.47;24.90;;;;;;;;;;5049513;28;20032;-67
2021/11/12 09:42:42;;;;;;;37.97;25.75;;;;;;;;;;5049142;28;20025;-68
2021/11/12 09:45:28;;;;;;;32.97;24.95;;;;;;;;;;5047428;28;20119;-65
2021/11/12 09:48:13;;;;;;;35.88;24.98;;;;;;;;;;5068136;28;20036;-63
2021/11/12 09:50:58;;;;;;;30.27;23.75;;;;;;;;;;5046915;28;20040;-65
2021/11/12 09:53:44;;;;;;;37.58;25.60;;;;;;;;;;5052263;28;20060;-64
2021/11/12 09:56:29;;;;;;;35.13;24.63;;;;;;;;;;5025836;28;20027;-65
2021/11/12 09:59:14;;;;;;;35.75;24.45;;;;;;;;;;5050622;28;20040;-64
2021/11/12 10:02:02;;;;;;;38.78;28.75;;;;;;;;;;5053518;28;20028;-63
2021/11/12 10:04:47;;;;;;;38.92;27.48;;;;;;;;;;5053798;28;20024;-62
2021/11/12 10:07:35;;;;;;;43.42;28.10;;;;;;;;;;5054002;28;20357;-68
2021/11/12 10:10:20;;;;;;;40.80;28.02;;;;;;;;;;5035829;28;20131;-67
2021/11/12 10:13:20;;;;;;;44.00;27.98;;;;;;;;;;5050173;28;20044;-67
2021/11/12 10:19:06;;;;;;;40.90;27.97;;;;;;;;;;5052428;28;20482;-67
2021/11/12 10:21:51;;;;;;;44.63;28.27;;;;;;;;;;5039530;28;20024;-68
2021/11/12 10:24:40;;;;;;;37.30;28.45;;;;;;;;;;5054767;28;20032;-68
2021/11/12 10:27:29;;;;;;;42.00;32.40;;;;;;;;;;5050898;28;20385;-68
2021/11/12 10:30:16;;;;;;;40.22;29.95;;;;;;;;;;5037068;28;20112;-70
2021/11/12 10:33:01;;;;;;;40.10;30.02;;;;;;;;;;5032127;28;20055;-67
2021/11/12 10:35:50;;;;;;;40.47;29.85;;;;;;;;;;5056355;28;20074;-67
2021/11/12 10:38:41;;;;;;;49.70;30.25;;;;;;;;;;5048499;28;20032;-66
2021/11/12 10:41:29;;;;;;;46.00;29.70;;;;;;;;;;5061728;28;20036;-67
2021/11/12 10:44:15;;;;;;;46.65;31.23;;;;;;;;;;5042620;28;20032;-67
2021/11/12 10:47:01;;;;;;;39.05;27.83;;;;;;;;;;5035112;28;20035;-67
2021/11/12 10:49:48;;;;;;;44.40;30.75;;;;;;;;;;5055199;28;20068;-68
2021/11/12 10:52:35;;;;;;;44.30;35.13;;;;;;;;;;5046738;28;20051;-66
2021/11/12 10:55:22;;;;;;;49.67;35.47;;;;;;;;;;5039654;28;20408;-68
2021/11/12 10:58:09;;;;;;;48.80;33.40;;;;;;;;;;5035547;28;20040;-62
2021/11/12 11:00:54;;;;;;;50.03;39.47;;;;;;;;;;5052666;28;20036;-62
2021/11/12 11:03:39;;;;;;;43.67;30.30;;;;;;;;;;5048537;28;20032;-63
2021/11/12 11:06:24;;;;;;;44.30;32.50;;;;;;;;;;5061243;28;20408;-64
2021/11/12 11:09:10;;;;;;;39.47;27.40;;;;;;;;;;5050522;28;20078;-65
2021/11/12 11:11:55;;;;;;;36.03;26.40;;;;;;;;;;5055775;28;20028;-63
2021/11/12 11:14:41;;;;;;;39.13;27.75;;;;;;;;;;5049668;28;20020;-62
2021/11/12 11:17:27;;;;;;;38.58;27.40;;;;;;;;;;5049798;28;20037;-64
2021/11/12 11:20:18;;;;;;;35.88;28.42;;;;;;;;;;5046551;28;20036;-62
2021/11/12 11:23:03;;;;;;;36.05;26.98;;;;;;;;;;5046729;28;20139;-62
2021/11/12 11:25:50;;;;;;;38.60;27.85;;;;;;;;;;5046277;28;20086;-67
2021/11/12 11:28:36;;;;;;;37.45;27.92;;;;;;;;;;5038914;28;20218;-65
2021/11/12 11:31:22;;;;;;;34.08;26.05;;;;;;;;;;5048090;28;20029;-62
2021/11/12 11:34:07;;;;;;;35.00;26.85;;;;;;;;;;5049266;28;20061;-61
2021/11/12 11:36:55;;;;;;;39.28;27.58;;;;;;;;;;5048144;28;20033;-68
2021/11/12 11:39:40;;;;;;;37.13;27.15;;;;;;;;;;5034197;28;20107;-66
2021/11/12 11:42:26;;;;;;;37.10;27.75;;;;;;;;;;5062829;28;20085;-70
2021/11/12 11:45:12;;;;;;;38.65;27.42;;;;;;;;;;5038808;28;20518;-71
2021/11/12 11:47:58;;;;;;;36.15;26.55;;;;;;;;;;5061191;28;20549;-70
2021/11/12 11:50:54;;;;;;;40.60;29.45;;;;;;;;;;5050239;28;20046;-71
2021/11/12 11:53:40;;;;;;;35.03;26.33;;;;;;;;;;5049045;28;20070;-62
2021/11/12 11:56:26;;;;;;;35.83;27.35;;;;;;;;;;5051098;28;20089;-70
2021/11/12 11:59:25;;;;;;;36.08;27.15;;;;;;;;;;5049271;28;20073;-67
2021/11/12 12:02:18;;;;;;;39.08;26.65;;;;;;;;;;5047981;28;20441;-67
2021/11/12 12:05:07;;;;;;;38.55;26.85;;;;;;;;;;5039181;28;20044;-69
2021/11/12 12:07:55;;;;;;;37.43;27.60;;;;;;;;;;5049806;28;20024;-68
2021/11/12 12:10:40;;;;;;;40.20;28.33;;;;;;;;;;5053367;28;20270;-68
2021/11/12 12:13:27;;;;;;;36.17;27.73;;;;;;;;;;5056835;28;20388;-63
2021/11/12 12:16:21;;;;;;;40.08;29.55;;;;;;;;;;5060886;28;20056;-63
2021/11/12 12:19:27;;;;;;;38.80;28.58;;;;;;;;;;5032610;28;20471;-63
2021/11/12 12:30:51;;;;;;;38.00;28.25;;;;;;;;;;5038708;28;20063;-63
2021/11/12 12:35:18;;;;;;;40.95;29.52;;;;;;;;;;5047362;28;20024;-64
2021/11/12 13:24:28;;;;;;;44.88;30.95;;;;;;;;;;5063812;28;20041;-68
2021/11/12 13:27:13;;;;;;;46.85;33.17;;;;;;;;;;5050820;28;20387;-65
2021/11/12 13:29:59;;;;;;;46.75;31.23;;;;;;;;;;5049793;28;20490;-63
2021/11/12 13:32:44;;;;;;;40.50;32.92;;;;;;;;;;5054741;28;20032;-61
2021/11/12 13:35:30;;;;;;;45.22;33.67;;;;;;;;;;5051118;28;20041;-63
2021/11/12 13:38:16;;;;;;;47.05;34.40;;;;;;;;;;5048694;28;20073;-63
2021/11/12 13:41:03;;;;;;;47.28;35.05;;;;;;;;;;5049859;28;20021;-63
2021/11/12 13:43:49;;;;;;;47.10;33.55;;;;;;;;;;5051428;28;20028;-68
2021/11/12 13:46:48;;;;;;;47.42;34.08;;;;;;;;;;5039147;28;20102;-64
2021/11/12 13:49:45;;;;;;;49.35;34.58;;;;;;;;;;5048152;28;20383;-66
2021/11/12 13:52:33;;;;;;;57.28;38.55;;;;;;;;;;5048532;28;20033;-66
2021/11/12 13:55:20;;;;;;;50.05;35.13;;;;;;;;;;5049190;28;20042;-68
2021/11/12 13:58:06;;;;;;;52.40;36.38;;;;;;;;;;5054835;28;20471;-66
2021/11/12 14:00:52;;;;;;;55.97;38.20;;;;;;;;;;5054931;28;20033;-67
2021/11/12 14:03:39;;;;;;;56.30;37.35;;;;;;;;;;5046045;28;20347;-66
2021/11/12 14:06:35;;;;;;;55.78;37.88;;;;;;;;;;5027836;28;20037;-67
2021/11/12 14:09:21;;;;;;;51.53;38.15;;;;;;;;;;5040913;28;20040;-65
2021/11/12 14:12:08;;;;;;;58.28;37.55;;;;;;;;;;5054107;28;20428;-66
2021/11/12 14:15:15;;;;;;;55.00;36.33;;;;;;;;;;5053334;28;20028;-65
2021/11/12 14:19:02;;;;;;;47.88;33.75;;;;;;;;;;5053985;28;20090;-66
2021/11/12 14:32:42;;;;;;;54.80;38.17;;;;;;;;;;5053358;28;20040;-67
2021/11/12 14:41:25;;;;;;;50.88;35.63;;;;;;;;;;5047213;28;20052;-67
2021/11/12 14:47:23;;;;;;;50.03;34.03;;;;;;;;;;5043194;28;20057;-65
2021/11/12 14:50:23;;;;;;;50.05;32.95;;;;;;;;;;5032940;28;20082;-64
2021/11/12 14:53:19;;;;;;;48.25;34.17;;;;;;;;;;5048163;28;20110;-62
2021/11/12 14:58:57;;;;;;;47.00;32.80;;;;;;;;;;5049358;28;20028;-63
2021/11/12 15:01:43;;;;;;;46.72;31.05;;;;;;;;;;5048481;28;20476;-65
2021/11/12 15:04:28;;;;;;;46.03;32.25;;;;;;;;;;5058375;28;20436;-67
2021/11/12 15:07:15;;;;;;;44.20;33.35;;;;;;;;;;5036600;28;20059;-64
2021/11/12 15:10:00;;;;;;;39.33;28.80;;;;;;;;;;5060059;28;20099;-66
2021/11/12 15:12:49;;;;;;;41.85;30.05;;;;;;;;;;5042122;28;20362;-63
2021/11/12 15:15:35;;;;;;;44.30;30.52;;;;;;;;;;5054024;28;20103;-69
2021/11/12 15:18:20;;;;;;;39.20;26.27;;;;;;;;;;5048846;28;20032;-63
2021/11/12 15:21:13;;;;;;;37.55;26.50;;;;;;;;;;5052669;28;20540;-69
2021/11/12 15:32:38;;;;;;;37.67;26.50;;;;;;;;;;5046000;28;20024;-70
2021/11/12 15:35:25;;;;;;;41.97;28.05;;;;;;;;;;5033399;28;20145;-61
2021/11/12 15:38:26;;;;;;;49.45;32.35;;;;;;;;;;5046791;28;20064;-61
2021/11/12 15:41:52;;;;;;;59.33;34.97;;;;;;;;;;5049250;28;20368;-63
2021/11/12 15:44:22;;;;;;;43.90;28.65;;;;;;;;;;5044964;28;20097;-60
2021/11/12 15:47:29;;;;;;;43.80;30.20;;;;;;;;;;5037959;28;20151;-62
2021/11/12 15:50:23;;;;;;;44.63;30.33;;;;;;;;;;5041710;28;20470;-60
2021/11/12 16:08:45;;;;;;;39.60;26.63;;;;;;;;;;5056743;28;20044;-69
2021/11/12 16:25:40;;;;;;;39.83;26.73;;;;;;;;;;5058004;28;20041;-63
2021/11/12 16:28:30;;;;;;;36.80;25.95;;;;;;;;;;5051609;28;20036;-65
2021/11/12 16:31:15;;;;;;;41.22;28.90;;;;;;;;;;5046862;28;20525;-70
2021/11/12 16:34:07;;;;;;;35.42;23.83;;;;;;;;;;5051238;28;20115;-75
2021/11/12 16:36:59;;;;;;;35.05;24.55;;;;;;;;;;5032325;28;20035;-79
2021/11/12 16:39:50;;;;;;;38.10;25.77;;;;;;;;;;5051885;28;20028;-66
2021/11/12 16:48:38;;;;;;;42.72;29.98;;;;;;;;;;5060214;28;20040;-60
2021/11/12 16:51:41;;;;;;;45.97;31.92;;;;;;;;;;5057660;28;20115;-67
2021/11/12 16:54:46;;;;;;;50.95;30.95;;;;;;;;;;5045391;28;20029;-68
2021/11/12 21:49:06;;;;;;;24.10;18.58;;;;;;;;;;5050539;28;20116;-64
2021/11/12 21:51:54;;;;;;;26.42;20.52;;;;;;;;;;5049679;28;20032;-62
2021/11/12 21:54:40;;;;;;;27.40;21.00;;;;;;;;;;5049334;28;20033;-65
2021/11/12 21:57:25;;;;;;;28.38;20.73;;;;;;;;;;5046489;28;20407;-63
2021/11/12 22:00:11;;;;;;;29.00;20.90;;;;;;;;;;5054097;28;20032;-63
2021/11/12 22:02:57;;;;;;;32.50;23.63;;;;;;;;;;5051903;28;20403;-66
2021/11/12 22:05:43;;;;;;;27.23;20.65;;;;;;;;;;5046860;28;20045;-68
2021/11/12 22:08:29;;;;;;;24.80;18.88;;;;;;;;;;5051178;28;20036;-63
2021/11/12 22:11:14;;;;;;;24.58;20.00;;;;;;;;;;5053177;28;20036;-63
2021/11/12 22:14:01;;;;;;;28.05;20.38;;;;;;;;;;5054623;28;20361;-65
2021/11/12 22:16:46;;;;;;;27.25;21.63;;;;;;;;;;5054803;28;20033;-63
2021/11/12 22:19:32;;;;;;;29.60;20.52;;;;;;;;;;5049460;28;20206;-61
2021/11/12 22:22:17;;;;;;;24.67;19.67;;;;;;;;;;5055100;28;20075;-63
2021/11/12 22:25:03;;;;;;;31.02;22.00;;;;;;;;;;5052006;28;20016;-62
2021/11/12 22:27:48;;;;;;;25.60;19.75;;;;;;;;;;5061714;28;20431;-63
2021/11/12 22:30:34;;;;;;;27.63;20.45;;;;;;;;;;5050030;28;20020;-62
2021/11/12 22:33:20;;;;;;;26.92;19.50;;;;;;;;;;5064137;28;20627;-66
2021/11/12 22:36:05;;;;;;;27.50;21.58;;;;;;;;;;5051496;28;20078;-63
2021/11/12 22:38:50;;;;;;;24.55;18.98;;;;;;;;;;5050443;28;20064;-69
2021/11/12 22:41:35;;;;;;;24.90;19.27;;;;;;;;;;5053384;28;20161;-66
2021/11/12 22:44:21;;;;;;;25.10;18.48;;;;;;;;;;5051001;28;20029;-66
2021/11/12 22:47:06;;;;;;;24.50;19.40;;;;;;;;;;5048843;28;20086;-65
2021/11/12 22:49:52;;;;;;;26.50;20.00;;;;;;;;;;5044264;28;20103;-70
2021/11/12 22:52:37;;;;;;;28.02;20.30;;;;;;;;;;5053591;28;20487;-67
2021/11/12 22:55:22;;;;;;;27.73;20.60;;;;;;;;;;5044492;28;20023;-67
2021/11/12 22:58:08;;;;;;;27.17;21.02;;;;;;;;;;5063285;28;20029;-70
2021/11/12 23:00:55;;;;;;;27.15;20.40;;;;;;;;;;5062296;28;20377;-61
2021/11/12 23:03:41;;;;;;;25.20;18.77;;;;;;;;;;5054801;28;20025;-63
2021/11/12 23:06:26;;;;;;;22.73;17.63;;;;;;;;;;5048807;28;20068;-63
2021/11/12 23:09:11;;;;;;;26.20;18.70;;;;;;;;;;5051009;28;20063;-62
2021/11/12 23:11:56;;;;;;;26.33;20.40;;;;;;;;;;5048435;28;20035;-65
2021/11/12 23:14:42;;;;;;;24.50;18.83;;;;;;;;;;5038764;28;20438;-66
2021/11/12 23:17:27;;;;;;;22.33;16.85;;;;;;;;;;5038052;28;20483;-64
2021/11/12 23:20:13;;;;;;;27.67;20.00;;;;;;;;;;5038719;28;20166;-64
2021/11/12 23:22:58;;;;;;;23.70;18.77;;;;;;;;;;5067940;28;20085;-62
2021/11/12 23:25:43;;;;;;;25.33;19.55;;;;;;;;;;5035013;28;20029;-64
2021/11/12 23:28:29;;;;;;;26.85;20.67;;;;;;;;;;5052484;28;20119;-66
2021/11/12 23:31:14;;;;;;;22.80;17.75;;;;;;;;;;5049809;28;20032;-65
2021/11/12 23:34:02;;;;;;;24.48;19.00;;;;;;;;;;5067885;28;20025;-66
2021/11/12 23:36:47;;;;;;;28.95;22.75;;;;;;;;;;5066195;28;20386;-64
2021/11/12 23:39:32;;;;;;;27.25;20.10;;;;;;;;;;5050757;28;20033;-65
2021/11/12 23:42:17;;;;;;;23.42;16.48;;;;;;;;;;5041695;28;20371;-63
2021/11/12 23:45:03;;;;;;;25.25;18.65;;;;;;;;;;5048807;28;20036;-67
2021/11/12 23:47:49;;;;;;;24.80;18.65;;;;;;;;;;5050993;28;20036;-64
2021/11/12 23:50:34;;;;;;;24.75;18.52;;;;;;;;;;5053492;28;20463;-63
2021/11/12 23:53:19;;;;;;;24.73;18.90;;;;;;;;;;5050181;28;20036;-64
2021/11/12 23:56:05;;;;;;;25.95;18.95;;;;;;;;;;5041485;28;20036;-66
2021/11/12 23:58:51;;;;;;;25.67;17.67;;;;;;;;;;5041410;28;20033;-67
